createdAt,value
2023-01-19T00:00:29.694Z,0.19
2023-01-19T00:02:56.383Z,0.19
2023-01-19T00:05:22.993Z,0.17
2023-01-19T00:07:49.571Z,0.16
2023-01-19T00:10:16.687Z,0.09
2023-01-19T00:12:43.294Z,0.07
2023-01-19T00:15:10.283Z,-0.02
2023-01-19T00:17:36.866Z,0.01
2023-01-19T00:20:04.066Z,-0.04
2023-01-19T00:22:30.620Z,0.00
2023-01-19T00:24:57.429Z,-0.15
2023-01-19T00:27:24.735Z,-0.07
2023-01-19T00:29:51.299Z,-0.04
2023-01-19T00:32:18.193Z,-0.03
2023-01-19T00:34:49.884Z,-0.01
2023-01-19T00:37:17.395Z,-0.02
2023-01-19T00:39:44.746Z,-0.04
2023-01-19T00:42:30.837Z,-0.07
2023-01-19T00:44:57.668Z,-0.23
2023-01-19T00:47:24.381Z,-0.28
2023-01-19T00:49:50.941Z,-0.21
2023-01-19T00:52:17.501Z,-0.19
2023-01-19T00:54:44.068Z,-0.17
2023-01-19T00:57:10.622Z,-0.20
2023-01-19T00:59:37.207Z,-0.21
2023-01-19T01:02:03.984Z,-0.17
2023-01-19T01:04:30.789Z,-0.22
2023-01-19T01:06:57.362Z,-0.24
2023-01-19T01:09:24.395Z,-0.24
2023-01-19T01:11:50.960Z,-0.23
2023-01-19T01:14:17.726Z,-0.33
2023-01-19T01:16:44.450Z,-0.32
2023-01-19T01:19:11.105Z,-0.50
2023-01-19T01:21:37.664Z,-0.38
2023-01-19T01:24:04.814Z,-0.30
2023-01-19T01:26:31.359Z,-0.31
2023-01-19T01:28:57.936Z,-0.29
2023-01-19T01:31:24.584Z,-0.35
2023-01-19T01:33:51.142Z,-0.33
2023-01-19T01:36:19.109Z,-0.27
2023-01-19T01:38:45.675Z,-0.33
2023-01-19T01:41:12.310Z,-0.47
2023-01-19T01:43:56.586Z,-0.36
2023-01-19T01:46:23.142Z,-0.38
2023-01-19T01:48:54.011Z,-0.36
2023-01-19T01:51:34.344Z,-0.48
2023-01-19T01:54:21.926Z,-0.46
2023-01-19T01:56:53.605Z,-0.48
2023-01-19T01:59:27.160Z,-0.46
2023-01-19T02:02:14.880Z,-0.45
2023-01-19T02:04:51.133Z,-0.50
2023-01-19T02:07:45.490Z,-0.48
2023-01-19T02:10:30.725Z,-0.49
2023-01-19T02:13:16.028Z,-0.53
2023-01-19T02:15:43.869Z,-0.50
2023-01-19T02:18:10.947Z,-0.53
2023-01-19T02:20:37.757Z,-0.58
2023-01-19T02:23:08.623Z,-0.57
2023-01-19T02:25:35.200Z,-0.54
2023-01-19T02:28:02.167Z,-0.59
2023-01-19T02:30:28.887Z,-0.66
2023-01-19T02:32:55.738Z,-0.68
2023-01-19T02:35:23.400Z,-0.72
2023-01-19T02:37:50.427Z,-0.84
2023-01-19T02:40:19.828Z,-0.79
2023-01-19T02:42:48.816Z,-0.73
2023-01-19T02:45:18.768Z,-0.84
2023-01-19T02:47:47.609Z,-0.85
2023-01-19T02:50:39.514Z,-0.73
2023-01-19T02:53:33.247Z,-0.82
2023-01-19T02:56:11.346Z,-0.89
2023-01-19T02:58:59.011Z,-0.98
2023-01-19T03:01:41.540Z,-1.05
2023-01-19T03:04:26.279Z,-0.96
2023-01-19T03:07:02.196Z,-0.86
2023-01-19T03:09:47.489Z,-0.84
2023-01-19T03:12:24.964Z,-0.77
2023-01-19T03:14:55.971Z,-0.83
2023-01-19T03:17:22.568Z,-0.85
2023-01-19T03:19:49.725Z,-0.74
2023-01-19T03:22:27.181Z,-0.74
2023-01-19T03:24:55.787Z,-0.74
2023-01-19T03:27:26.677Z,-0.73
2023-01-19T03:29:55.950Z,-0.77
2023-01-19T03:32:29.840Z,-0.74
2023-01-19T03:34:59.816Z,-0.72
2023-01-19T03:37:27.556Z,-0.69
2023-01-19T03:39:54.206Z,-0.73
2023-01-19T03:42:20.806Z,-0.79
2023-01-19T03:44:50.659Z,-0.77
2023-01-19T03:47:17.848Z,-0.83
2023-01-19T03:49:45.345Z,-0.78
2023-01-19T03:52:12.968Z,-1.11
2023-01-19T03:54:39.736Z,-1.04
2023-01-19T03:57:06.348Z,-0.95
2023-01-19T03:59:32.922Z,-0.90
2023-01-19T04:01:59.572Z,-0.96
2023-01-19T04:04:26.192Z,-1.04
2023-01-19T04:06:52.768Z,-1.04
2023-01-19T04:09:20.163Z,-0.96
2023-01-19T04:11:46.791Z,-0.98
2023-01-19T04:14:13.923Z,-0.92
2023-01-19T04:16:40.506Z,-0.90
2023-01-19T04:19:07.063Z,-0.88
2023-01-19T04:21:33.634Z,-0.92
2023-01-19T04:24:00.180Z,-0.98
2023-01-19T04:26:26.760Z,-1.07
2023-01-19T04:28:53.339Z,-1.05
2023-01-19T04:31:20.032Z,-0.97
2023-01-19T04:33:46.623Z,-1.16
2023-01-19T04:36:13.200Z,-1.02
2023-01-19T04:38:39.791Z,-1.03
2023-01-19T04:41:06.341Z,-1.06
2023-01-19T04:43:32.965Z,-1.02
2023-01-19T04:45:59.520Z,-1.05
2023-01-19T04:48:26.102Z,-1.20
2023-01-19T04:50:52.754Z,-1.02
2023-01-19T04:53:19.427Z,-0.95
2023-01-19T04:55:46.780Z,-0.91
2023-01-19T04:58:13.368Z,-1.11
2023-01-19T05:00:39.951Z,-1.32
2023-01-19T05:03:06.580Z,-1.15
2023-01-19T05:05:33.326Z,-1.11
2023-01-19T05:08:00.502Z,-1.03
2023-01-19T05:10:27.053Z,-0.98
2023-01-19T05:12:53.617Z,-0.84
2023-01-19T05:15:20.200Z,-0.94
2023-01-19T05:17:46.770Z,-1.12
2023-01-19T05:20:16.067Z,-1.13
2023-01-19T05:22:43.527Z,-1.09
2023-01-19T05:25:10.098Z,-1.10
2023-01-19T05:27:37.524Z,-0.96
2023-01-19T05:30:05.618Z,-0.96
2023-01-19T05:32:32.359Z,-0.92
2023-01-19T05:34:59.109Z,-0.91
2023-01-19T05:37:25.710Z,-0.94
2023-01-19T05:39:52.931Z,-0.94
2023-01-19T05:42:20.258Z,-0.99
2023-01-19T05:44:46.831Z,-0.93
2023-01-19T05:47:13.377Z,-0.89
2023-01-19T05:49:39.956Z,-0.93
2023-01-19T05:52:06.594Z,-0.93
2023-01-19T05:54:33.299Z,-0.94
2023-01-19T05:56:59.882Z,-1.03
2023-01-19T05:59:26.545Z,-0.99
2023-01-19T06:01:53.954Z,-1.14
2023-01-19T06:04:21.060Z,-1.02
2023-01-19T06:06:48.700Z,-1.00
2023-01-19T06:09:15.388Z,-1.03
2023-01-19T06:11:41.957Z,-1.04
2023-01-19T06:14:10.240Z,-0.98
2023-01-19T06:16:37.107Z,-1.04
2023-01-19T06:19:04.135Z,-1.03
2023-01-19T06:21:30.936Z,-1.03
2023-01-19T06:23:57.597Z,-1.07
2023-01-19T06:26:24.339Z,-1.03
2023-01-19T06:28:52.144Z,-1.25
2023-01-19T06:31:18.910Z,-1.05
2023-01-19T06:33:45.534Z,-1.33
2023-01-19T06:36:13.278Z,-1.12
2023-01-19T06:38:40.063Z,-0.98
2023-01-19T06:41:06.604Z,-0.97
2023-01-19T06:43:33.164Z,-1.04
2023-01-19T06:46:00.823Z,-0.97
2023-01-19T06:48:27.575Z,-1.12
2023-01-19T06:50:54.168Z,-1.06
2023-01-19T06:53:22.311Z,-1.29
2023-01-19T06:55:48.976Z,-1.20
2023-01-19T06:58:15.818Z,-1.12
2023-01-19T07:00:43.161Z,-1.06
2023-01-19T07:03:19.495Z,-1.08
2023-01-19T07:05:46.475Z,-1.09
2023-01-19T07:08:13.193Z,-1.09
2023-01-19T07:11:25.537Z,-1.13
2023-01-19T07:13:26.350Z,-1.16
2023-01-19T07:15:52.917Z,-1.17
2023-01-19T07:18:19.505Z,-1.18
2023-01-19T07:20:46.981Z,-1.23
2023-01-19T07:23:13.758Z,-1.50
2023-01-19T07:25:40.599Z,-1.36
2023-01-19T07:28:07.187Z,-1.22
2023-01-19T07:30:33.939Z,-1.30
2023-01-19T07:33:00.878Z,-1.22
2023-01-19T07:35:29.681Z,-1.26
2023-01-19T07:37:56.247Z,-1.54
2023-01-19T07:40:23.993Z,-1.36
2023-01-19T07:42:52.069Z,-1.23
2023-01-19T07:45:20.554Z,-1.23
2023-01-19T07:47:51.197Z,-1.07
2023-01-19T07:50:21.355Z,-1.11
2023-01-19T07:52:50.745Z,-1.24
2023-01-19T07:55:17.735Z,-1.08
2023-01-19T07:57:44.649Z,-0.95
2023-01-19T08:00:11.911Z,-0.91
2023-01-19T08:02:41.687Z,-0.86
2023-01-19T08:05:08.580Z,-0.80
2023-01-19T08:07:35.353Z,-0.77
2023-01-19T08:10:01.952Z,-0.72
2023-01-19T08:12:28.571Z,-0.69
2023-01-19T08:14:55.229Z,-0.75
2023-01-19T08:17:21.798Z,-0.74
2023-01-19T08:19:48.420Z,-0.81
2023-01-19T08:22:15.326Z,-0.74
2023-01-19T08:24:41.971Z,-0.70
2023-01-19T08:27:10.074Z,-0.73
2023-01-19T08:29:36.947Z,-0.70
2023-01-19T08:32:04.949Z,-0.69
2023-01-19T08:34:32.076Z,-0.74
2023-01-19T08:36:59.293Z,-0.66
2023-01-19T08:39:26.068Z,-0.59
2023-01-19T08:41:52.776Z,-0.59
2023-01-19T08:44:19.623Z,-0.50
2023-01-19T08:46:46.729Z,-0.38
2023-01-19T08:49:13.675Z,-0.29
2023-01-19T08:51:40.316Z,-0.17
2023-01-19T08:54:06.896Z,-0.14
2023-01-19T08:56:33.485Z,-0.10
2023-01-19T08:59:09.242Z,-0.16
2023-01-19T09:01:37.364Z,-0.09
2023-01-19T09:04:05.584Z,-0.07
2023-01-19T09:06:32.900Z,0.05
2023-01-19T09:08:59.553Z,0.14
2023-01-19T09:11:27.527Z,0.17
2023-01-19T09:13:54.246Z,0.46
2023-01-19T09:16:21.984Z,0.66
2023-01-19T09:18:48.642Z,0.71
2023-01-19T09:21:15.288Z,0.99
2023-01-19T09:23:42.908Z,1.19
2023-01-19T09:26:10.427Z,1.06
2023-01-19T09:28:37.728Z,1.38
2023-01-19T09:31:06.648Z,1.47
2023-01-19T09:33:33.927Z,1.54
2023-01-19T09:36:00.534Z,1.81
2023-01-19T09:38:31.530Z,1.97
2023-01-19T09:40:59.640Z,2.22
2023-01-19T09:43:49.649Z,2.31
2023-01-19T09:46:20.611Z,2.27
2023-01-19T09:48:50.368Z,2.47
2023-01-19T09:51:23.253Z,2.71
2023-01-19T09:54:06.887Z,2.75
2023-01-19T09:56:33.673Z,2.78
2023-01-19T09:59:00.720Z,2.66
2023-01-19T10:01:35.409Z,2.63
2023-01-19T10:04:28.214Z,2.87
2023-01-19T10:07:10.188Z,2.76
2023-01-19T10:10:02.548Z,2.94
2023-01-19T10:12:43.826Z,2.69
2023-01-19T10:15:21.272Z,2.98
2023-01-19T10:18:09.137Z,3.15
2023-01-19T10:20:40.096Z,3.04
2023-01-19T10:23:20.957Z,3.16
2023-01-19T10:25:47.894Z,3.37
2023-01-19T10:28:15.542Z,3.22
2023-01-19T10:30:43.088Z,3.55
2023-01-19T10:33:12.712Z,3.69
2023-01-19T10:35:39.496Z,3.91
2023-01-19T10:38:06.345Z,3.95
2023-01-19T10:40:58.748Z,4.35
2023-01-19T10:43:34.544Z,4.06
2023-01-19T10:46:05.211Z,4.33
2023-01-19T10:48:42.090Z,4.85
2023-01-19T10:51:10.387Z,5.37
2023-01-19T10:53:37.584Z,5.15
2023-01-19T10:56:35.508Z,5.75
2023-01-19T10:59:04.334Z,5.85
2023-01-19T11:01:35.914Z,5.55
2023-01-19T11:04:28.750Z,5.31
2023-01-19T11:07:23.902Z,5.04
2023-01-19T11:10:21.162Z,4.53
2023-01-19T11:13:08.710Z,4.31
2023-01-19T11:15:44.365Z,4.45
2023-01-19T11:18:28.273Z,5.11
2023-01-19T11:21:06.746Z,5.16
2023-01-19T11:23:43.563Z,4.88
2023-01-19T11:26:16.475Z,5.16
2023-01-19T11:28:47.072Z,5.53
2023-01-19T11:31:13.927Z,5.93
2023-01-19T11:33:50.897Z,5.92
2023-01-19T11:36:28.760Z,5.75
2023-01-19T11:38:57.646Z,5.66
2023-01-19T11:41:36.646Z,5.20
2023-01-19T11:44:14.102Z,4.93
2023-01-19T11:46:43.987Z,4.94
2023-01-19T11:49:52.614Z,4.67
2023-01-19T11:52:26.653Z,4.64
2023-01-19T11:55:01.969Z,4.58
2023-01-19T11:57:28.602Z,4.48
2023-01-19T11:59:55.423Z,4.44
2023-01-19T12:02:32.503Z,4.40
2023-01-19T12:05:03.968Z,4.43
2023-01-19T12:07:33.866Z,4.64
2023-01-19T12:10:23.498Z,4.48
2023-01-19T12:12:50.345Z,4.23
2023-01-19T12:15:37.000Z,4.30
2023-01-19T12:18:05.801Z,4.17
2023-01-19T12:20:39.137Z,4.31
2023-01-19T12:23:11.719Z,4.19
2023-01-19T12:25:47.319Z,4.23
2023-01-19T12:28:15.635Z,4.12
2023-01-19T12:30:42.322Z,4.03
2023-01-19T12:33:26.185Z,4.25
2023-01-19T12:35:57.969Z,4.39
2023-01-19T12:38:35.181Z,4.32
2023-01-19T12:41:36.451Z,4.47
2023-01-19T12:44:12.345Z,4.47
2023-01-19T12:47:05.375Z,4.45
2023-01-19T12:49:35.000Z,4.45
2023-01-19T12:52:27.237Z,4.40
2023-01-19T12:55:00.134Z,4.49
2023-01-19T12:57:41.892Z,4.58
2023-01-19T13:00:33.362Z,4.38
2023-01-19T13:03:02.265Z,4.59
2023-01-19T13:05:33.126Z,4.67
2023-01-19T13:08:03.001Z,4.70
2023-01-19T13:11:02.101Z,4.72
2023-01-19T13:13:29.356Z,4.57
2023-01-19T13:15:57.213Z,4.57
2023-01-19T13:18:26.484Z,4.45
2023-01-19T13:20:58.940Z,4.48
2023-01-19T13:23:27.263Z,4.31
2023-01-19T13:26:01.373Z,4.36
2023-01-19T13:28:35.640Z,4.31
2023-01-19T13:31:03.222Z,4.34
2023-01-19T13:33:35.767Z,4.27
2023-01-19T13:36:02.423Z,4.29
2023-01-19T13:38:29.862Z,4.37
2023-01-19T13:40:57.197Z,4.41
2023-01-19T13:43:28.584Z,4.51
2023-01-19T13:45:55.497Z,4.42
2023-01-19T13:48:23.378Z,4.40
2023-01-19T13:51:04.709Z,4.06
2023-01-19T13:53:31.852Z,4.08
2023-01-19T13:56:20.796Z,4.14
2023-01-19T13:59:10.824Z,3.95
2023-01-19T14:01:39.160Z,4.00
2023-01-19T14:04:05.958Z,3.94
2023-01-19T14:06:38.882Z,3.85
2023-01-19T14:09:14.893Z,4.04
2023-01-19T14:11:41.523Z,4.16
2023-01-19T14:14:25.386Z,3.76
2023-01-19T14:16:52.088Z,3.88
2023-01-19T14:19:18.737Z,3.75
2023-01-19T14:21:46.192Z,3.79
2023-01-19T14:24:19.583Z,3.75
2023-01-19T14:26:48.767Z,3.86
2023-01-19T14:29:21.807Z,3.63
2023-01-19T14:32:10.341Z,3.70
2023-01-19T14:34:37.239Z,3.69
2023-01-19T14:37:11.760Z,3.65
2023-01-19T14:39:44.738Z,3.71
2023-01-19T14:42:17.411Z,3.69
2023-01-19T14:44:48.274Z,3.62
2023-01-19T14:47:38.546Z,3.53
2023-01-19T14:50:10.848Z,3.55
2023-01-19T14:52:40.686Z,3.51
2023-01-19T14:55:19.601Z,3.31
2023-01-19T14:57:46.203Z,3.44
2023-01-19T15:00:17.477Z,3.27
2023-01-19T15:02:45.733Z,3.35
2023-01-19T15:05:13.482Z,3.17
2023-01-19T15:07:42.273Z,3.33
2023-01-19T15:10:27.253Z,3.30
2023-01-19T15:12:54.616Z,3.31
2023-01-19T15:15:27.157Z,3.33
2023-01-19T15:17:56.054Z,3.19
2023-01-19T15:20:23.359Z,3.33
2023-01-19T15:22:49.938Z,3.23
2023-01-19T15:25:19.369Z,2.90
2023-01-19T15:27:47.412Z,2.99
2023-01-19T15:30:16.211Z,3.01
2023-01-19T15:32:44.143Z,2.82
2023-01-19T15:35:21.994Z,2.93
2023-01-19T15:37:50.659Z,3.01
2023-01-19T15:40:18.727Z,2.97
2023-01-19T15:42:45.811Z,2.98
2023-01-19T15:45:32.101Z,3.07
2023-01-19T15:47:59.247Z,2.96
2023-01-19T15:50:26.298Z,2.94
2023-01-19T15:52:53.153Z,2.81
2023-01-19T15:55:19.828Z,2.95
2023-01-19T15:57:47.785Z,3.05
2023-01-19T16:00:14.901Z,2.96
2023-01-19T16:02:41.988Z,3.05
2023-01-19T16:05:09.392Z,2.94
2023-01-19T16:07:37.689Z,2.93
2023-01-19T16:10:11.934Z,2.88
2023-01-19T16:12:40.164Z,2.97
2023-01-19T16:15:07.560Z,2.97
2023-01-19T16:17:36.414Z,2.53
2023-01-19T16:20:17.259Z,2.82
2023-01-19T16:22:58.547Z,2.96
2023-01-19T16:25:31.094Z,3.03
2023-01-19T16:27:58.021Z,3.04
2023-01-19T16:30:24.590Z,3.12
2023-01-19T16:32:51.323Z,3.12
2023-01-19T16:35:17.886Z,2.85
2023-01-19T16:37:44.562Z,2.95
2023-01-19T16:40:11.991Z,3.04
2023-01-19T16:42:39.762Z,2.95
2023-01-19T16:45:06.691Z,3.01
2023-01-19T16:47:33.319Z,2.93
2023-01-19T16:49:59.916Z,2.99
2023-01-19T16:52:26.546Z,3.00
2023-01-19T16:54:54.747Z,3.07
2023-01-19T16:57:21.406Z,3.14
2023-01-19T16:59:48.119Z,3.08
2023-01-19T17:02:14.825Z,3.19
2023-01-19T17:04:41.625Z,3.17
2023-01-19T17:07:08.210Z,3.15
2023-01-19T17:09:34.772Z,3.23
2023-01-19T17:12:01.330Z,3.25
2023-01-19T17:14:27.922Z,3.12
2023-01-19T17:16:54.689Z,3.16
2023-01-19T17:19:22.196Z,3.16
2023-01-19T17:21:49.237Z,3.27
2023-01-19T17:24:17.020Z,3.33
2023-01-19T17:26:45.993Z,3.23
2023-01-19T17:29:12.689Z,3.26
2023-01-19T17:31:39.323Z,3.33
2023-01-19T17:34:06.281Z,3.36
2023-01-19T17:36:33.569Z,3.38
2023-01-19T17:39:01.498Z,3.38
2023-01-19T17:41:29.919Z,3.44
2023-01-19T17:43:57.234Z,3.45
2023-01-19T17:46:26.820Z,3.47
2023-01-19T17:49:01.792Z,3.46
2023-01-19T17:51:29.297Z,3.38
2023-01-19T17:53:56.810Z,3.39
2023-01-19T17:56:29.920Z,3.42
2023-01-19T17:58:57.634Z,3.33
2023-01-19T18:01:26.969Z,3.44
2023-01-19T18:03:53.736Z,3.47
2023-01-19T18:06:21.296Z,3.51
2023-01-19T18:08:49.424Z,3.48
2023-01-19T18:11:17.500Z,3.52
2023-01-19T18:13:45.783Z,3.58
2023-01-19T18:16:14.884Z,3.44
2023-01-19T18:18:41.881Z,3.52
2023-01-19T18:21:10.453Z,3.46
2023-01-19T18:23:37.727Z,3.51
2023-01-19T18:26:12.451Z,3.62
2023-01-19T18:28:39.130Z,3.39
2023-01-19T18:31:11.645Z,3.47
2023-01-19T18:33:38.876Z,3.46
2023-01-19T18:36:06.128Z,3.43
2023-01-19T18:38:33.388Z,3.50
2023-01-19T18:41:12.202Z,3.41
2023-01-19T18:43:39.029Z,3.51
2023-01-19T18:46:06.017Z,3.62
2023-01-19T18:48:32.856Z,3.59
2023-01-19T18:51:03.459Z,3.60
2023-01-19T18:53:31.590Z,3.62
2023-01-19T18:55:59.651Z,3.70
2023-01-19T18:58:29.341Z,3.66
2023-01-19T19:00:56.687Z,3.62
2023-01-19T19:03:23.350Z,3.69
2023-01-19T19:05:50.095Z,3.64
2023-01-19T19:08:16.821Z,3.64
2023-01-19T19:10:43.760Z,3.81
2023-01-19T19:13:15.650Z,3.74
2023-01-19T19:15:44.376Z,3.76
2023-01-19T19:18:13.952Z,3.72
2023-01-19T19:20:42.207Z,3.66
2023-01-19T19:23:10.325Z,3.64
2023-01-19T19:25:37.446Z,3.77
2023-01-19T19:28:04.283Z,3.76
2023-01-19T19:30:32.585Z,3.76
2023-01-19T19:32:59.953Z,3.78
2023-01-19T19:35:26.550Z,3.57
2023-01-19T19:37:57.559Z,3.54
2023-01-19T19:40:27.789Z,3.57
2023-01-19T19:42:54.820Z,3.74
2023-01-19T19:45:22.433Z,3.69
2023-01-19T19:47:49.247Z,3.68
2023-01-19T19:50:16.224Z,3.62
2023-01-19T19:52:43.198Z,3.79
2023-01-19T19:55:10.861Z,3.43
2023-01-19T19:57:37.812Z,3.36
2023-01-19T20:00:07.545Z,3.53
2023-01-19T20:05:21.293Z,3.74
2023-01-19T20:07:48.376Z,3.78
2023-01-19T20:10:15.223Z,3.67
2023-01-19T20:12:42.132Z,3.69
2023-01-19T20:15:09.231Z,3.71
2023-01-19T20:17:36.025Z,3.78
2023-01-19T20:20:04.494Z,3.76
2023-01-19T20:22:32.924Z,3.78
2023-01-19T20:24:59.506Z,3.78
2023-01-19T20:27:41.180Z,3.69
2023-01-19T20:30:08.486Z,3.79
2023-01-19T20:32:35.069Z,3.85
2023-01-19T20:35:01.621Z,3.86
2023-01-19T20:37:29.290Z,3.85
2023-01-19T20:39:55.869Z,3.88
2023-01-19T20:42:22.458Z,3.95
2023-01-19T20:44:49.790Z,3.86
2023-01-19T20:47:16.399Z,3.91
2023-01-19T20:49:42.976Z,3.95
2023-01-19T20:52:09.764Z,3.96
2023-01-19T20:54:36.459Z,4.02
2023-01-19T20:57:03.126Z,3.96
2023-01-19T20:59:29.725Z,3.96
2023-01-19T21:01:56.452Z,3.99
2023-01-19T21:04:23.199Z,4.06
2023-01-19T21:06:49.873Z,4.09
2023-01-19T21:09:16.552Z,4.00
2023-01-19T21:11:43.086Z,4.01
2023-01-19T21:14:09.690Z,3.97
2023-01-19T21:16:37.459Z,4.00
2023-01-19T21:19:04.388Z,4.05
2023-01-19T21:21:32.278Z,4.01
2023-01-19T21:24:00.821Z,4.04
2023-01-19T21:26:29.942Z,3.91
2023-01-19T21:28:58.206Z,3.96
2023-01-19T21:31:27.372Z,3.97
2023-01-19T21:33:54.464Z,4.06
2023-01-19T21:36:21.562Z,4.04
2023-01-19T21:38:48.282Z,4.03
2023-01-19T21:41:16.459Z,4.05
2023-01-19T21:43:44.171Z,4.04
2023-01-19T21:46:12.761Z,4.07
2023-01-19T21:48:39.980Z,4.10
2023-01-19T21:51:06.910Z,4.07
2023-01-19T21:53:33.476Z,4.11
2023-01-19T21:56:00.490Z,4.06
2023-01-19T21:58:27.322Z,4.10
2023-01-19T22:01:05.590Z,4.07
2023-01-19T22:03:32.328Z,4.17
2023-01-19T22:06:07.381Z,4.09
2023-01-19T22:08:34.446Z,4.14
2023-01-19T22:11:09.615Z,4.18
2023-01-19T22:13:38.586Z,4.13
2023-01-19T22:16:11.649Z,4.19
2023-01-19T22:18:39.946Z,4.28
2023-01-19T22:21:13.763Z,4.24
2023-01-19T22:23:40.584Z,4.17
2023-01-19T22:26:08.097Z,4.13
2023-01-19T22:28:34.896Z,4.13
2023-01-19T22:31:06.812Z,4.14
2023-01-19T22:33:33.432Z,4.22
2023-01-19T22:36:24.288Z,4.23
2023-01-19T22:38:59.270Z,4.28
2023-01-19T22:41:28.388Z,4.31
2023-01-19T22:43:57.059Z,4.31
2023-01-19T22:46:29.666Z,4.32
2023-01-19T22:48:56.685Z,4.31
2023-01-19T22:51:23.961Z,4.21
2023-01-19T22:53:50.527Z,4.35
2023-01-19T22:56:19.282Z,4.32
2023-01-19T22:58:47.019Z,4.32
2023-01-19T23:01:16.564Z,4.22
2023-01-19T23:03:43.334Z,4.19
2023-01-19T23:06:15.189Z,4.25
2023-01-19T23:08:42.192Z,4.24
2023-01-19T23:11:11.076Z,4.22
2023-01-19T23:13:37.877Z,4.31
2023-01-19T23:16:05.264Z,4.30
2023-01-19T23:18:32.226Z,4.34
2023-01-19T23:21:03.545Z,4.35
2023-01-19T23:23:30.131Z,4.32
2023-01-19T23:26:01.761Z,4.27
2023-01-19T23:28:28.435Z,4.17
2023-01-19T23:30:55.095Z,4.32
2023-01-19T23:33:21.729Z,4.40
2023-01-19T23:35:48.402Z,4.32
2023-01-19T23:38:14.985Z,4.30
2023-01-19T23:40:41.611Z,4.24
2023-01-19T23:43:08.209Z,4.28
2023-01-19T23:45:35.480Z,4.21
2023-01-19T23:48:03.881Z,4.10
2023-01-19T23:50:30.502Z,4.05
2023-01-19T23:52:57.059Z,4.17
2023-01-19T23:55:23.605Z,4.15
2023-01-19T23:57:50.153Z,4.04
